createdAt,value
2017-05-01T00:00:10.067Z,34.00
2017-05-01T00:02:40.797Z,32.80
2017-05-01T00:05:11.667Z,32.90
2017-05-01T00:07:42.378Z,35.10
2017-05-01T00:10:14.646Z,35.40
2017-05-01T00:12:45.752Z,33.70
2017-05-01T00:15:17.166Z,34.30
2017-05-01T00:17:48.015Z,32.70
2017-05-01T00:20:18.910Z,34.40
2017-05-01T00:22:50.289Z,37.40
2017-05-01T00:25:21.019Z,34.90
2017-05-01T00:27:51.771Z,35.10
2017-05-01T00:30:22.646Z,33.90
2017-05-01T00:32:53.174Z,34.30
2017-05-01T00:35:24.235Z,35.00
2017-05-01T00:37:54.886Z,33.90
2017-05-01T00:40:25.822Z,34.70
2017-05-01T00:42:56.743Z,34.00
2017-05-01T00:45:28.631Z,34.70
2017-05-01T00:47:59.463Z,34.00
2017-05-01T00:50:30.216Z,35.40
2017-05-01T00:53:01.055Z,35.00
2017-05-01T00:55:31.786Z,32.30
2017-05-01T00:58:02.596Z,33.60
2017-05-01T01:00:33.419Z,34.00
2017-05-01T01:03:04.101Z,31.60
2017-05-01T01:05:35.993Z,33.00
2017-05-01T01:08:06.885Z,34.40
2017-05-01T01:10:46.656Z,33.60
2017-05-01T01:13:17.631Z,34.20
2017-05-01T01:15:48.703Z,33.60
2017-05-01T01:18:19.433Z,32.70
2017-05-01T01:20:50.100Z,35.10
2017-05-01T01:23:20.811Z,35.40
2017-05-01T01:25:51.710Z,36.20
2017-05-01T01:28:23.290Z,33.40
2017-05-01T01:30:54.544Z,35.20
2017-05-01T01:33:25.417Z,36.20
2017-05-01T01:35:55.592Z,36.70
2017-05-01T01:38:26.422Z,35.40
2017-05-01T01:40:57.189Z,34.80
2017-05-01T01:43:27.941Z,35.70
2017-05-01T01:45:58.798Z,34.80
2017-05-01T01:48:29.893Z,37.90
2017-05-01T01:51:00.817Z,35.30
2017-05-01T01:53:31.781Z,35.00
2017-05-01T01:56:03.550Z,36.30
2017-05-01T01:58:34.274Z,35.70
2017-05-01T02:01:04.977Z,36.80
2017-05-01T02:03:35.658Z,37.40
2017-05-01T02:06:06.750Z,36.30
2017-05-01T02:08:37.837Z,36.30
2017-05-01T02:11:09.789Z,38.30
2017-05-01T02:13:40.623Z,37.60
2017-05-01T02:16:11.346Z,38.30
2017-05-01T02:18:42.132Z,37.80
2017-05-01T02:21:13.399Z,37.60
2017-05-01T02:23:44.244Z,38.70
2017-05-01T02:26:15.185Z,38.20
2017-05-01T02:28:46.767Z,37.70
2017-05-01T02:31:17.775Z,39.90
2017-05-01T02:33:49.139Z,39.30
2017-05-01T02:36:19.888Z,41.00
2017-05-01T02:38:50.424Z,40.20
2017-05-01T02:41:21.390Z,40.80
2017-05-01T02:43:52.254Z,42.00
2017-05-01T02:46:22.995Z,41.20
2017-05-01T02:48:53.743Z,40.90
2017-05-01T02:51:24.494Z,40.50
2017-05-01T02:53:55.124Z,40.70
2017-05-01T02:56:26.059Z,43.70
2017-05-01T02:58:57.549Z,42.60
2017-05-01T03:01:28.379Z,42.50
2017-05-01T03:03:59.843Z,42.40
2017-05-01T03:06:30.555Z,43.20
2017-05-01T03:09:01.536Z,43.00
2017-05-01T03:11:33.361Z,43.00
2017-05-01T03:14:04.223Z,43.50
2017-05-01T03:16:37.640Z,43.10
2017-05-01T03:19:08.770Z,46.20
2017-05-01T03:21:39.443Z,45.90
2017-05-01T03:24:10.337Z,46.90
2017-05-01T03:26:41.420Z,48.30
2017-05-01T03:29:12.471Z,51.10
2017-05-01T03:31:43.336Z,51.30
2017-05-01T03:34:14.176Z,52.60
2017-05-01T03:36:45.516Z,53.30
2017-05-01T03:39:16.109Z,52.70
2017-05-01T03:41:46.927Z,54.90
2017-05-01T03:44:17.812Z,55.50
2017-05-01T03:46:48.627Z,55.00
2017-05-01T03:49:19.633Z,56.00
2017-05-01T03:51:50.400Z,54.90
2017-05-01T03:54:21.179Z,59.20
2017-05-01T03:56:52.242Z,60.50
2017-05-01T03:59:22.965Z,57.20
2017-05-01T04:01:53.821Z,58.00
2017-05-01T04:04:24.591Z,59.80
2017-05-01T04:06:55.319Z,62.60
2017-05-01T04:09:25.960Z,59.80
2017-05-01T04:11:57.947Z,59.10
2017-05-01T04:14:28.836Z,58.70
2017-05-01T04:16:59.643Z,60.00
2017-05-01T04:19:31.130Z,58.90
2017-05-01T04:22:01.832Z,58.40
2017-05-01T04:24:32.612Z,57.80
2017-05-01T04:27:03.450Z,58.60
2017-05-01T04:29:34.594Z,59.40
2017-05-01T04:32:06.630Z,59.40
2017-05-01T04:34:37.259Z,61.70
2017-05-01T04:37:08.021Z,60.30
2017-05-01T04:39:38.967Z,61.20
2017-05-01T04:42:10.224Z,61.10
2017-05-01T04:44:40.691Z,63.00
2017-05-01T04:47:12.509Z,61.40
2017-05-01T04:49:43.202Z,62.30
2017-05-01T04:52:13.966Z,62.50
2017-05-01T04:54:44.708Z,62.00
2017-05-01T04:57:15.523Z,63.00
2017-05-01T04:59:46.361Z,63.60
2017-05-01T05:02:17.300Z,64.60
2017-05-01T05:04:47.934Z,64.30
2017-05-01T05:07:18.851Z,66.30
2017-05-01T05:09:49.777Z,66.40
2017-05-01T05:12:21.793Z,67.00
2017-05-01T05:14:52.385Z,68.10
2017-05-01T05:17:23.504Z,69.00
2017-05-01T05:19:54.301Z,68.80
2017-05-01T05:22:25.131Z,69.00
2017-05-01T05:24:55.635Z,69.00
2017-05-01T05:27:26.454Z,69.70
2017-05-01T05:29:57.228Z,69.70
2017-05-01T05:32:28.107Z,70.70
2017-05-01T05:34:59.021Z,71.10
2017-05-01T05:37:29.836Z,71.00
2017-05-01T05:40:00.466Z,72.00
2017-05-01T05:42:31.279Z,72.50
2017-05-01T05:45:02.242Z,74.20
2017-05-01T05:47:33.338Z,75.30
2017-05-01T05:50:04.170Z,77.00
2017-05-01T05:52:35.108Z,77.90
2017-05-01T05:55:06.451Z,77.90
2017-05-01T05:57:37.122Z,82.30
2017-05-01T06:00:08.507Z,82.00
2017-05-01T06:02:39.969Z,83.00
2017-05-01T06:05:10.617Z,86.60
2017-05-01T06:07:41.523Z,86.80
2017-05-01T06:10:12.468Z,88.90
2017-05-01T06:12:44.380Z,88.20
2017-05-01T06:15:15.418Z,88.80
2017-05-01T06:17:47.305Z,89.90
2017-05-01T06:20:18.199Z,90.60
2017-05-01T06:22:49.367Z,90.00
2017-05-01T06:25:21.079Z,90.50
2017-05-01T06:27:52.942Z,92.20
2017-05-01T06:30:24.657Z,91.60
2017-05-01T06:32:55.689Z,92.70
2017-05-01T06:35:26.670Z,93.50
2017-05-01T06:37:57.536Z,94.70
2017-05-01T06:40:28.331Z,95.90
2017-05-01T06:43:00.180Z,96.70
2017-05-01T06:45:30.972Z,96.90
2017-05-01T06:48:01.591Z,96.70
2017-05-01T06:50:32.437Z,97.20
2017-05-01T06:53:03.289Z,97.50
2017-05-01T06:55:33.903Z,98.10
2017-05-01T06:58:04.754Z,99.00
2017-05-01T07:00:35.588Z,99.30
2017-05-01T07:03:06.450Z,99.90
2017-05-01T07:05:37.489Z,99.90
2017-05-01T07:08:08.511Z,99.90
2017-05-01T07:10:39.915Z,99.90
2017-05-01T07:13:12.040Z,99.90
2017-05-01T07:15:42.529Z,99.90
2017-05-01T07:18:13.445Z,99.90
2017-05-01T07:20:44.188Z,99.90
2017-05-01T07:23:14.870Z,99.90
2017-05-01T07:25:45.730Z,99.90
2017-05-01T07:28:16.487Z,99.90
2017-05-01T07:30:47.019Z,99.90
2017-05-01T07:33:17.575Z,99.90
2017-05-01T07:35:48.188Z,99.90
2017-05-01T07:38:19.194Z,99.90
2017-05-01T07:40:50.062Z,99.90
2017-05-01T07:43:20.931Z,99.90
2017-05-01T07:45:51.548Z,99.90
2017-05-01T07:48:22.314Z,99.90
2017-05-01T07:50:53.010Z,99.90
2017-05-01T07:53:23.739Z,99.90
2017-05-01T07:55:54.632Z,99.90
2017-05-01T07:58:25.100Z,99.90
2017-05-01T08:00:56.014Z,99.90
2017-05-01T08:03:27.039Z,99.90
2017-05-01T08:05:58.577Z,99.90
2017-05-01T08:08:29.496Z,99.90
2017-05-01T08:11:00.059Z,99.90
2017-05-01T08:13:31.953Z,99.90
2017-05-01T08:16:02.736Z,99.90
2017-05-01T08:18:33.369Z,99.90
2017-05-01T08:21:04.297Z,99.90
2017-05-01T08:23:34.986Z,99.90
2017-05-01T08:26:05.813Z,99.90
2017-05-01T08:28:36.871Z,99.90
2017-05-01T08:31:07.277Z,99.90
2017-05-01T08:33:38.313Z,99.90
2017-05-01T08:36:09.177Z,99.90
2017-05-01T08:38:39.921Z,99.90
2017-05-01T08:41:10.603Z,99.90
2017-05-01T08:43:41.626Z,99.90
2017-05-01T08:46:12.403Z,99.90
2017-05-01T08:48:42.986Z,99.90
2017-05-01T08:51:13.689Z,99.90
2017-05-01T08:53:44.327Z,99.90
2017-05-01T08:56:15.079Z,99.90
2017-05-01T08:58:46.107Z,99.90
2017-05-01T09:01:17.028Z,99.90
2017-05-01T09:03:47.999Z,99.90
2017-05-01T09:06:18.686Z,99.90
2017-05-01T09:08:49.400Z,99.90
2017-05-01T09:11:20.213Z,99.90
2017-05-01T09:13:52.137Z,99.90
2017-05-01T09:16:22.808Z,99.90
2017-05-01T09:18:53.572Z,99.90
2017-05-01T09:21:24.367Z,99.90
2017-05-01T09:23:55.098Z,99.90
2017-05-01T09:26:33.339Z,99.90
2017-05-01T09:29:04.223Z,99.90
2017-05-01T09:31:34.947Z,99.90
2017-05-01T09:34:05.870Z,99.90
2017-05-01T09:36:36.777Z,99.90
2017-05-01T09:39:07.807Z,99.90
2017-05-01T09:41:38.683Z,99.90
2017-05-01T09:44:09.422Z,99.90
2017-05-01T09:46:39.865Z,99.90
2017-05-01T09:49:10.410Z,99.90
2017-05-01T09:51:40.905Z,99.90
2017-05-01T09:54:11.827Z,99.90
2017-05-01T09:56:42.916Z,99.90
2017-05-01T09:59:13.583Z,99.90
2017-05-01T10:01:44.489Z,99.90
2017-05-01T10:04:15.297Z,99.90
2017-05-01T10:06:46.167Z,99.90
2017-05-01T10:09:16.794Z,99.90
2017-05-01T10:11:47.500Z,99.90
2017-05-01T10:14:18.737Z,99.90
2017-05-01T10:16:50.001Z,99.90
2017-05-01T10:19:20.701Z,99.90
2017-05-01T10:21:52.112Z,99.90
2017-05-01T10:24:22.694Z,99.90
2017-05-01T10:26:53.439Z,99.90
2017-05-01T10:29:24.277Z,99.90
2017-05-01T10:31:55.192Z,99.90
2017-05-01T10:34:26.115Z,99.90
2017-05-01T10:36:56.816Z,99.90
2017-05-01T10:39:27.467Z,99.90
2017-05-01T10:41:57.954Z,99.90
2017-05-01T10:44:28.605Z,99.90
2017-05-01T10:46:59.657Z,99.90
2017-05-01T10:49:30.405Z,99.90
2017-05-01T10:52:01.233Z,99.90
2017-05-01T10:54:31.953Z,99.90
2017-05-01T10:57:02.783Z,99.90
2017-05-01T10:59:33.702Z,99.90
2017-05-01T11:02:04.543Z,99.90
2017-05-01T11:04:35.366Z,99.90
2017-05-01T11:07:06.031Z,99.90
2017-05-01T11:09:36.790Z,99.90
2017-05-01T11:12:07.155Z,99.90
2017-05-01T11:14:38.531Z,99.90
2017-05-01T11:17:08.969Z,99.90
2017-05-01T11:19:39.688Z,99.90
2017-05-01T11:22:10.595Z,99.90
2017-05-01T11:24:41.411Z,99.90
2017-05-01T11:27:12.280Z,99.90
2017-05-01T11:29:43.264Z,99.90
2017-05-01T11:32:14.079Z,99.90
2017-05-01T11:34:44.828Z,99.90
2017-05-01T11:37:15.486Z,99.90
2017-05-01T11:39:46.161Z,99.90
2017-05-01T11:42:16.810Z,99.90
2017-05-01T11:44:47.525Z,99.90
2017-05-01T11:47:18.341Z,99.90
2017-05-01T11:49:49.268Z,99.90
2017-05-01T11:52:19.933Z,99.90
2017-05-01T11:54:50.959Z,99.90
2017-05-01T11:57:22.858Z,99.90
2017-05-01T11:59:53.741Z,99.90
2017-05-01T12:02:24.624Z,99.90
2017-05-01T12:04:55.272Z,99.90
2017-05-01T12:07:25.755Z,99.90
2017-05-01T12:09:57.489Z,99.90
2017-05-01T12:12:28.030Z,99.90
2017-05-01T12:14:59.668Z,99.90
2017-05-01T12:17:30.456Z,99.90
2017-05-01T12:20:01.615Z,99.90
2017-05-01T12:22:32.092Z,99.90
2017-05-01T12:25:02.812Z,99.90
2017-05-01T12:27:33.426Z,99.90
2017-05-01T12:30:04.229Z,99.90
2017-05-01T12:32:35.045Z,99.90
2017-05-01T12:35:06.399Z,99.90
2017-05-01T12:37:37.072Z,99.90
2017-05-01T12:40:07.950Z,99.90
2017-05-01T12:42:38.429Z,99.90
2017-05-01T12:45:09.148Z,99.90
2017-05-01T12:47:45.062Z,99.90
2017-05-01T12:50:16.007Z,99.90
2017-05-01T12:52:46.804Z,99.90
2017-05-01T12:55:17.667Z,99.90
2017-05-01T12:57:48.727Z,99.90
2017-05-01T13:00:19.219Z,99.90
2017-05-01T13:02:49.641Z,99.90
2017-05-01T13:05:20.351Z,99.90
2017-05-01T13:07:51.170Z,99.90
2017-05-01T13:10:21.840Z,99.90
2017-05-01T13:12:52.669Z,99.90
2017-05-01T13:15:25.096Z,99.90
2017-05-01T13:17:55.886Z,99.90
2017-05-01T13:20:26.623Z,99.90
2017-05-01T13:22:57.689Z,99.90
2017-05-01T13:25:28.232Z,99.90
2017-05-01T13:27:59.093Z,99.90
2017-05-01T13:30:30.257Z,99.90
2017-05-01T13:33:00.997Z,99.90
2017-05-01T13:35:31.578Z,99.90
2017-05-01T13:38:02.163Z,99.90
2017-05-01T13:40:33.197Z,99.90
2017-05-01T13:43:03.637Z,99.90
2017-05-01T13:45:34.714Z,99.90
2017-05-01T13:48:05.578Z,99.90
2017-05-01T13:50:36.414Z,99.90
2017-05-01T13:53:07.031Z,99.90
2017-05-01T13:55:38.626Z,99.90
2017-05-01T13:58:09.426Z,99.80
2017-05-01T14:00:40.200Z,99.30
2017-05-01T14:03:11.145Z,99.90
2017-05-01T14:05:42.174Z,99.90
2017-05-01T14:08:12.772Z,99.90
2017-05-01T14:10:43.577Z,99.90
2017-05-01T14:13:14.596Z,99.90
2017-05-01T14:15:47.462Z,99.90
2017-05-01T14:18:17.947Z,99.90
2017-05-01T14:20:49.468Z,99.90
2017-05-01T14:23:20.804Z,99.90
2017-05-01T14:25:51.679Z,98.40
2017-05-01T14:28:22.557Z,96.60
2017-05-01T14:30:53.553Z,95.20
2017-05-01T14:33:24.304Z,96.40
2017-05-01T14:35:55.143Z,96.20
2017-05-01T14:38:25.697Z,99.40
2017-05-01T14:40:56.554Z,97.90
2017-05-01T14:43:27.565Z,97.80
2017-05-01T14:45:58.096Z,95.10
2017-05-01T14:48:28.851Z,93.20
2017-05-01T14:50:59.747Z,88.60
2017-05-01T14:53:30.202Z,91.20
2017-05-01T14:56:00.940Z,89.60
2017-05-01T14:58:31.768Z,91.20
2017-05-01T15:01:02.613Z,85.30
2017-05-01T15:03:33.599Z,90.30
2017-05-01T15:06:04.294Z,88.40
2017-05-01T15:08:35.054Z,85.80
2017-05-01T15:11:06.099Z,87.00
2017-05-01T15:13:37.379Z,85.00
2017-05-01T15:16:08.993Z,83.20
2017-05-01T15:18:39.719Z,84.60
2017-05-01T15:21:10.755Z,79.90
2017-05-01T15:23:41.678Z,84.70
2017-05-01T15:26:12.700Z,83.60
2017-05-01T15:28:43.646Z,79.60
2017-05-01T15:31:14.552Z,80.60
2017-05-01T15:33:46.150Z,81.80
2017-05-01T15:36:17.007Z,82.60
2017-05-01T15:38:47.935Z,84.70
2017-05-01T15:41:18.910Z,82.70
2017-05-01T15:43:49.726Z,79.70
2017-05-01T15:46:20.602Z,75.40
2017-05-01T15:48:51.462Z,77.30
2017-05-01T15:51:22.141Z,76.40
2017-05-01T15:53:53.082Z,78.50
2017-05-01T15:56:23.928Z,74.00
2017-05-01T15:58:54.526Z,76.90
2017-05-01T16:01:25.483Z,75.60
2017-05-01T16:03:56.467Z,74.40
2017-05-01T16:06:27.237Z,76.70
2017-05-01T16:08:57.980Z,78.60
2017-05-01T16:11:28.902Z,75.60
2017-05-01T16:13:59.525Z,80.30
2017-05-01T16:16:31.292Z,78.50
2017-05-01T16:19:02.204Z,75.80
2017-05-01T16:21:33.006Z,75.80
2017-05-01T16:24:03.953Z,76.60
2017-05-01T16:26:34.845Z,74.90
2017-05-01T16:29:05.530Z,77.70
2017-05-01T16:31:36.092Z,76.30
2017-05-01T16:34:06.835Z,73.30
2017-05-01T16:36:38.008Z,75.30
2017-05-01T16:39:08.694Z,77.60
2017-05-01T16:41:40.443Z,77.20
2017-05-01T16:44:11.249Z,76.10
2017-05-01T16:46:42.169Z,78.20
2017-05-01T16:49:12.652Z,75.10
2017-05-01T16:51:43.437Z,71.90
2017-05-01T16:54:14.273Z,72.50
2017-05-01T16:56:45.210Z,75.10
2017-05-01T16:59:15.929Z,75.70
2017-05-01T17:01:46.805Z,73.50
2017-05-01T17:04:17.671Z,74.40
2017-05-01T17:06:48.642Z,73.60
2017-05-01T17:09:19.575Z,78.40
2017-05-01T17:11:50.566Z,76.50
2017-05-01T17:14:21.463Z,75.10
2017-05-01T17:16:52.971Z,76.50
2017-05-01T17:19:23.660Z,76.70
2017-05-01T17:21:54.490Z,73.20
2017-05-01T17:24:25.308Z,81.30
2017-05-01T17:26:56.927Z,77.10
2017-05-01T17:29:27.965Z,73.40
2017-05-01T17:31:58.785Z,75.00
2017-05-01T17:34:29.615Z,73.50
2017-05-01T17:37:00.555Z,69.80
2017-05-01T17:39:31.343Z,68.80
2017-05-01T17:42:02.523Z,72.20
2017-05-01T17:44:33.024Z,70.60
2017-05-01T17:47:04.136Z,70.10
2017-05-01T17:49:34.639Z,68.40
2017-05-01T17:52:05.277Z,69.20
2017-05-01T17:54:36.205Z,71.00
2017-05-01T17:57:06.966Z,68.30
2017-05-01T17:59:37.768Z,69.00
2017-05-01T18:02:07.962Z,66.00
2017-05-01T18:04:38.690Z,66.10
2017-05-01T18:07:10.019Z,68.30
2017-05-01T18:09:40.891Z,71.20
2017-05-01T18:12:11.649Z,71.30
2017-05-01T18:14:42.239Z,69.40
2017-05-01T18:17:13.798Z,72.70
2017-05-01T18:19:45.460Z,77.50
2017-05-01T18:22:16.231Z,67.70
2017-05-01T18:24:46.728Z,70.80
2017-05-01T18:27:17.884Z,72.20
2017-05-01T18:29:48.905Z,66.30
2017-05-01T18:32:19.844Z,69.40
2017-05-01T18:34:50.805Z,67.30
2017-05-01T18:37:21.405Z,67.60
2017-05-01T18:39:52.989Z,69.50
2017-05-01T18:42:23.724Z,74.50
2017-05-01T18:44:54.371Z,67.80
2017-05-01T18:47:25.509Z,72.20
2017-05-01T18:49:56.204Z,68.70
2017-05-01T18:52:27.892Z,67.10
2017-05-01T18:54:58.520Z,66.70
2017-05-01T18:57:29.353Z,65.20
2017-05-01T18:59:59.909Z,65.30
2017-05-01T19:02:30.675Z,63.90
2017-05-01T19:05:01.487Z,66.90
2017-05-01T19:07:32.465Z,65.80
2017-05-01T19:10:03.132Z,67.50
2017-05-01T19:12:34.031Z,69.40
2017-05-01T19:15:05.658Z,70.30
2017-05-01T19:17:37.755Z,66.20
2017-05-01T19:20:08.313Z,63.40
2017-05-01T19:22:39.391Z,67.30
2017-05-01T19:25:10.418Z,68.60
2017-05-01T19:27:41.126Z,64.70
2017-05-01T19:30:12.117Z,63.30
2017-05-01T19:32:42.968Z,65.00
2017-05-01T19:35:13.558Z,65.80
2017-05-01T19:37:44.556Z,66.10
2017-05-01T19:40:16.059Z,69.70
2017-05-01T19:42:46.721Z,63.30
2017-05-01T19:45:17.612Z,66.80
2017-05-01T19:47:48.287Z,68.10
2017-05-01T19:50:18.972Z,66.10
2017-05-01T19:52:49.784Z,67.60
2017-05-01T19:55:20.589Z,70.60
2017-05-01T19:57:51.577Z,65.40
2017-05-01T20:00:22.602Z,65.30
2017-05-01T20:02:53.298Z,54.90
2017-05-01T20:05:24.391Z,67.90
2017-05-01T20:07:55.232Z,67.10
2017-05-01T20:10:25.948Z,66.30
2017-05-01T20:12:56.993Z,64.20
2017-05-01T20:15:27.662Z,63.10
2017-05-01T20:17:59.213Z,62.30
2017-05-01T20:20:29.904Z,57.60
2017-05-01T20:23:00.744Z,60.00
2017-05-01T20:25:31.643Z,59.70
2017-05-01T20:28:02.577Z,64.40
2017-05-01T20:30:33.221Z,61.20
2017-05-01T20:33:03.808Z,61.00
2017-05-01T20:35:34.540Z,62.00
2017-05-01T20:38:05.553Z,63.00
2017-05-01T20:40:37.033Z,62.00
2017-05-01T20:43:07.628Z,61.60
2017-05-01T20:45:38.469Z,61.90
2017-05-01T20:48:08.999Z,65.40
2017-05-01T20:50:40.134Z,64.70
2017-05-01T20:53:11.174Z,64.10
2017-05-01T20:55:42.890Z,60.20
2017-05-01T20:58:13.710Z,62.50
2017-05-01T21:00:44.501Z,61.40
2017-05-01T21:03:15.132Z,61.90
2017-05-01T21:05:45.935Z,58.20
2017-05-01T21:08:16.958Z,60.60
2017-05-01T21:10:47.880Z,63.10
2017-05-01T21:13:18.599Z,64.60
2017-05-01T21:15:49.176Z,62.60
2017-05-01T21:18:21.549Z,63.70
2017-05-01T21:20:52.278Z,59.70
2017-05-01T21:23:23.258Z,58.10
2017-05-01T21:25:54.146Z,55.90
2017-05-01T21:28:24.971Z,61.10
2017-05-01T21:30:55.833Z,62.70
2017-05-01T21:33:26.523Z,55.60
2017-05-01T21:35:57.188Z,65.80
2017-05-01T21:38:28.010Z,57.70
2017-05-01T21:40:58.622Z,53.10
2017-05-01T21:43:29.410Z,56.50
2017-05-01T21:46:00.067Z,58.00
2017-05-01T21:48:30.878Z,46.40
2017-05-01T21:51:01.720Z,47.60
2017-05-01T21:53:32.449Z,46.20
2017-05-01T21:56:03.134Z,49.20
2017-05-01T21:58:33.994Z,52.80
2017-05-01T22:01:04.679Z,50.50
2017-05-01T22:03:35.542Z,50.40
2017-05-01T22:06:06.949Z,47.20
2017-05-01T22:08:37.820Z,50.80
2017-05-01T22:11:08.430Z,49.30
2017-05-01T22:13:39.632Z,51.50
2017-05-01T22:16:10.179Z,50.10
2017-05-01T22:18:41.672Z,50.60
2017-05-01T22:21:12.327Z,56.10
2017-05-01T22:23:43.270Z,52.60
2017-05-01T22:26:13.956Z,52.60
2017-05-01T22:28:44.709Z,48.30
2017-05-01T22:31:15.581Z,58.90
2017-05-01T22:33:46.535Z,51.90
2017-05-01T22:36:17.318Z,46.80
2017-05-01T22:38:48.045Z,53.10
2017-05-01T22:41:18.919Z,52.10
2017-05-01T22:43:49.734Z,51.70
2017-05-01T22:46:20.515Z,53.20
2017-05-01T22:48:51.454Z,56.60
2017-05-01T22:51:22.050Z,59.10
2017-05-01T22:53:53.844Z,60.10
2017-05-01T22:56:24.560Z,64.20
2017-05-01T22:58:55.539Z,65.90
2017-05-01T23:01:26.348Z,60.60
2017-05-01T23:03:57.153Z,63.70
2017-05-01T23:06:28.442Z,64.80
2017-05-01T23:08:59.523Z,63.80
2017-05-01T23:11:30.196Z,61.70
2017-05-01T23:14:01.026Z,62.70
2017-05-01T23:16:31.653Z,59.70
2017-05-01T23:19:04.280Z,60.50
2017-05-01T23:21:35.068Z,58.20
2017-05-01T23:24:05.786Z,60.00
2017-05-01T23:26:36.555Z,66.80
2017-05-01T23:29:07.263Z,62.40
2017-05-01T23:31:38.113Z,60.60
2017-05-01T23:34:08.717Z,62.20
2017-05-01T23:36:40.392Z,65.90
2017-05-01T23:39:11.371Z,66.50
2017-05-01T23:41:42.040Z,68.00
2017-05-01T23:44:12.821Z,69.20
2017-05-01T23:46:43.500Z,67.10
2017-05-01T23:49:14.170Z,69.10
2017-05-01T23:51:45.084Z,70.90
2017-05-01T23:54:16.075Z,70.20
2017-05-01T23:56:46.825Z,73.40
2017-05-01T23:59:17.581Z,72.10
